Neenah, Wisconsin
Current Conditions -  °F | °C
As of 7:45 PM on Wednesday 26 Nov 2014 (Local Time) from KATW Reporting Station
Broken Clouds Broken Clouds  
Wind Chill:   Ceiling: 10000
Heat Index: 18°   Visibility: 7mi
Dew Point: 16°   Wind: 6mph
Humidity: 93%   Direction: 270°W
Pressure: 30.17"   Gusts: NA
Location:  44.19°N, 88.46°W
Report Text: KATW 270145Z 27005KT 7SM SCT080 BKN100 M08/M09 A3017
Loading
Personal Weather Stations






























Interactive Weather Map New forecast layout! Learn more

10-Day Weather Forecast

Advertisements
Track Severe Weather on mobile